Time;durP1;ratioP1;P1;durP2;ratioP2;P2;SDS_P1;SDS_P2;PMS_P1;PMS_P2;Temp;Humidity;BMP_temperature;BMP_pressure;BME280_temperature;BME280_humidity;BME280_pressure;Samples;Min_cycle;Max_cycle;Signal;HPM_P1;HPM_P2
2023/05/10 00:00:07;;;;;;;;;;;;;;;16.97;100.00;99562.09;5091748;28;19920;-56
2023/05/10 00:02:32;;;;;;;;;;;;;;;17.01;100.00;99563.63;5092427;28;20036;-56
2023/05/10 00:04:57;;;;;;;;;;;;;;;17.02;100.00;99562.66;5090963;28;20040;-57
2023/05/10 00:07:22;;;;;;;;;;;;;;;16.95;100.00;99566.72;5091648;28;19916;-56
2023/05/10 00:09:48;;;;;;;;;;;;;;;16.88;100.00;99562.72;5092261;28;20305;-56
2023/05/10 00:12:13;;;;;;;;;;;;;;;16.95;100.00;99559.50;5090247;28;19959;-56
2023/05/10 00:14:38;;;;;;;;;;;;;;;17.00;100.00;99568.13;5091306;28;19924;-56
2023/05/10 00:17:04;;;;;;;;;;;;;;;17.02;100.00;99566.22;5091751;28;20702;-57
2023/05/10 00:19:29;;;;;;;;;;;;;;;17.03;100.00;99567.94;5091286;28;19920;-57
2023/05/10 00:21:54;;;;;;;;;;;;;;;17.03;100.00;99567.09;5091980;28;19916;-56
2023/05/10 00:24:20;;;;;;;;;;;;;;;17.03;100.00;99561.72;5091814;28;20291;-56
2023/05/10 00:26:45;;;;;;;;;;;;;;;17.06;100.00;99572.25;5090853;28;20023;-56
2023/05/10 00:29:10;;;;;;;;;;;;;;;17.05;100.00;99570.50;5090123;28;19967;-57
2023/05/10 00:31:35;;;;;;;;;;;;;;;17.03;100.00;99576.00;5091654;28;19954;-57
2023/05/10 00:34:01;;;;;;;;;;;;;;;17.03;100.00;99572.47;5091668;28;19950;-57
2023/05/10 00:36:27;;;;;;;;;;;;;;;17.04;100.00;99575.06;5091131;28;20553;-57
2023/05/10 00:38:52;;;;;;;;;;;;;;;17.05;100.00;99573.19;5091430;28;19954;-56
2023/05/10 00:41:18;;;;;;;;;;;;;;;16.89;100.00;99575.19;5090554;28;19938;-57
2023/05/10 00:43:43;;;;;;;;;;;;;;;16.88;100.00;99574.34;5090658;28;20049;-56
2023/05/10 00:46:08;;;;;;;;;;;;;;;16.92;100.00;99567.78;5089932;28;19916;-56
2023/05/10 00:48:34;;;;;;;;;;;;;;;16.95;100.00;99569.41;5089284;28;19919;-56
2023/05/10 00:51:00;;;;;;;;;;;;;;;16.92;100.00;99569.59;5090528;28;19923;-57
2023/05/10 00:53:26;;;;;;;;;;;;;;;16.87;100.00;99569.03;5089831;28;19916;-56
2023/05/10 00:55:51;;;;;;;;;;;;;;;16.88;100.00;99565.41;5090417;28;19916;-57
2023/05/10 00:58:17;;;;;;;;;;;;;;;16.89;100.00;99567.13;5090717;28;19924;-57
2023/05/10 01:00:43;;;;;;;;;;;;;;;16.90;100.00;99563.50;5086429;28;19924;-57
2023/05/10 01:03:09;;;;;;;;;;;;;;;16.91;100.00;99565.19;5090621;28;19924;-57
2023/05/10 01:05:35;;;;;;;;;;;;;;;16.83;100.00;99562.16;5090306;28;19916;-56
2023/05/10 01:08:00;;;;;;;;;;;;;;;16.86;100.00;99561.94;5090904;28;19916;-57
2023/05/10 01:10:25;;;;;;;;;;;;;;;16.80;100.00;99559.66;5090007;28;19923;-56
2023/05/10 01:12:51;;;;;;;;;;;;;;;16.76;100.00;99564.38;5090858;28;19916;-56
2023/05/10 01:15:17;;;;;;;;;;;;;;;16.78;100.00;99561.59;5090060;28;20346;-56
2023/05/10 01:17:43;;;;;;;;;;;;;;;16.70;100.00;99566.59;5090400;28;19931;-56
2023/05/10 01:20:10;;;;;;;;;;;;;;;16.66;100.00;99557.88;5089884;28;19916;-56
2023/05/10 01:22:49;;;;;;;;;;;;;;;16.66;100.00;99562.38;5090098;28;19916;-57
2023/05/10 01:25:15;;;;;;;;;;;;;;;16.69;100.00;99554.09;5090727;28;19939;-56
2023/05/10 01:27:40;;;;;;;;;;;;;;;16.71;100.00;99554.88;5090575;28;19916;-56
2023/05/10 01:30:15;;;;;;;;;;;;;;;16.76;100.00;99553.63;5089352;28;19920;-56
2023/05/10 01:32:54;;;;;;;;;;;;;;;16.74;100.00;99557.38;5090479;28;19920;-56
2023/05/10 01:35:39;;;;;;;;;;;;;;;16.79;100.00;99564.16;5089987;28;19916;-56
2023/05/10 01:38:11;;;;;;;;;;;;;;;16.82;100.00;99563.09;5089809;28;19948;-56
2023/05/10 01:40:39;;;;;;;;;;;;;;;16.80;100.00;99573.94;5086354;28;19919;-57
2023/05/10 01:43:07;;;;;;;;;;;;;;;16.76;100.00;99560.81;5081303;28;19963;-56
2023/05/10 01:45:44;;;;;;;;;;;;;;;16.70;100.00;99566.59;5089985;28;20353;-56
2023/05/10 01:48:10;;;;;;;;;;;;;;;16.70;100.00;99569.28;5089567;28;20363;-56
2023/05/10 01:50:38;;;;;;;;;;;;;;;16.74;100.00;99565.41;5090466;28;20010;-56
2023/05/10 01:53:05;;;;;;;;;;;;;;;16.70;100.00;99564.78;5090316;28;19959;-56
2023/05/10 01:55:34;;;;;;;;;;;;;;;16.68;100.00;99561.31;5089072;28;19942;-57
2023/05/10 01:58:07;;;;;;;;;;;;;;;16.63;100.00;99568.81;5089790;28;19920;-56
2023/05/10 02:00:34;;;;;;;;;;;;;;;16.64;100.00;99566.97;5090101;28;19923;-56
2023/05/10 02:03:01;;;;;;;;;;;;;;;16.68;100.00;99577.44;5086277;28;20000;-56
2023/05/10 02:05:28;;;;;;;;;;;;;;;16.64;100.00;99580.41;5089699;28;20393;-56
2023/05/10 02:07:55;;;;;;;;;;;;;;;16.63;100.00;99584.06;5089900;28;19950;-55
2023/05/10 02:10:20;;;;;;;;;;;;;;;16.61;100.00;99588.66;5089720;28;19912;-56
2023/05/10 02:12:47;;;;;;;;;;;;;;;16.63;100.00;99597.47;5089204;28;19920;-56
2023/05/10 02:15:15;;;;;;;;;;;;;;;16.62;100.00;99593.09;5090149;28;19916;-56
2023/05/10 02:17:42;;;;;;;;;;;;;;;16.65;100.00;99598.25;5089559;28;19924;-56
2023/05/10 02:20:08;;;;;;;;;;;;;;;16.62;100.00;99595.78;5089564;28;19993;-56
2023/05/10 02:22:35;;;;;;;;;;;;;;;16.64;100.00;99591.13;5089324;28;20328;-56
2023/05/10 02:25:00;;;;;;;;;;;;;;;16.65;100.00;99598.25;5089279;28;19969;-56
2023/05/10 02:27:27;;;;;;;;;;;;;;;16.66;100.00;99598.16;5088545;28;19920;-56
2023/05/10 02:29:53;;;;;;;;;;;;;;;16.60;100.00;99600.38;5089799;28;20006;-56
2023/05/10 02:32:19;;;;;;;;;;;;;;;16.56;100.00;99598.81;5092290;28;20022;-56
2023/05/10 02:34:45;;;;;;;;;;;;;;;16.60;100.00;99601.25;5092636;28;19912;-56
2023/05/10 02:37:13;;;;;;;;;;;;;;;16.61;100.00;99596.72;5092788;28;19916;-56
2023/05/10 02:39:43;;;;;;;;;;;;;;;16.57;100.00;99595.19;5094009;28;20398;-57
2023/05/10 02:42:09;;;;;;;;;;;;;;;16.58;100.00;99596.91;5092955;28;19920;-57
2023/05/10 02:44:36;;;;;;;;;;;;;;;16.60;100.00;99600.38;5093766;28;19935;-57
2023/05/10 02:47:01;;;;;;;;;;;;;;;16.51;100.00;99600.94;5093734;28;20480;-56
2023/05/10 02:49:27;;;;;;;;;;;;;;;16.47;100.00;99605.66;5092903;28;19920;-57
2023/05/10 02:51:54;;;;;;;;;;;;;;;16.47;100.00;99600.28;5094153;28;19916;-56
2023/05/10 02:54:24;;;;;;;;;;;;;;;16.47;100.00;99594.94;5093198;28;19942;-56
2023/05/10 02:57:00;;;;;;;;;;;;;;;16.52;100.00;99606.22;5093499;28;19959;-57
2023/05/10 02:59:25;;;;;;;;;;;;;;;16.53;100.00;99597.22;5088726;28;20362;-56
2023/05/10 03:01:51;;;;;;;;;;;;;;;16.55;100.00;99607.84;5092516;28;19924;-56
2023/05/10 03:04:16;;;;;;;;;;;;;;;16.53;100.00;99604.41;5093566;28;19935;-56
2023/05/10 03:06:42;;;;;;;;;;;;;;;16.52;100.00;99608.06;5091982;28;19923;-56
2023/05/10 03:09:09;;;;;;;;;;;;;;;16.46;100.00;99603.91;5092851;28;19916;-57
2023/05/10 03:11:43;;;;;;;;;;;;;;;16.50;100.00;99609.97;5093413;28;19989;-57
2023/05/10 03:14:27;;;;;;;;;;;;;;;16.49;100.00;99608.25;5092204;28;19931;-56
2023/05/10 03:16:56;;;;;;;;;;;;;;;16.53;100.00;99615.13;5093057;28;19924;-56
2023/05/10 03:19:32;;;;;;;;;;;;;;;16.52;100.00;99613.44;5093097;28;20466;-56
2023/05/10 03:21:59;;;;;;;;;;;;;;;16.50;100.00;99620.72;5092037;28;19954;-56
2023/05/10 03:24:27;;;;;;;;;;;;;;;16.45;100.00;99621.00;5093075;28;19916;-56
2023/05/10 03:26:55;;;;;;;;;;;;;;;16.43;100.00;99612.13;5093133;28;19916;-57
2023/05/10 03:29:22;;;;;;;;;;;;;;;16.49;100.00;99610.94;5092453;28;20002;-57
2023/05/10 03:31:47;;;;;;;;;;;;;;;16.48;100.00;99617.25;5091925;28;19920;-56
2023/05/10 03:34:12;;;;;;;;;;;;;;;16.49;100.00;99605.56;5092489;28;19935;-56
2023/05/10 03:36:37;;;;;;;;;;;;;;;16.52;100.00;99614.25;5092614;28;19919;-56
2023/05/10 03:39:03;;;;;;;;;;;;;;;16.52;100.00;99614.25;5091308;28;20026;-57
2023/05/10 03:41:28;;;;;;;;;;;;;;;16.55;100.00;99613.22;5091029;28;19916;-56
2023/05/10 03:43:54;;;;;;;;;;;;;;;16.57;100.00;99616.69;5088549;28;20015;-56
2023/05/10 03:46:19;;;;;;;;;;;;;;;16.62;100.00;99619.94;5091047;28;19916;-57
2023/05/10 03:48:44;;;;;;;;;;;;;;;16.57;100.00;99622.88;5091659;28;20332;-56
2023/05/10 03:51:09;;;;;;;;;;;;;;;16.57;100.00;99622.06;5090657;28;19920;-56
2023/05/10 03:53:35;;;;;;;;;;;;;;;16.56;100.00;99626.56;5092331;28;19920;-56
2023/05/10 03:56:00;;;;;;;;;;;;;;;16.54;100.00;99622.25;5092109;28;20367;-57
2023/05/10 03:58:25;;;;;;;;;;;;;;;16.54;100.00;99622.25;5091115;28;19920;-56
2023/05/10 04:00:51;;;;;;;;;;;;;;;16.52;100.00;99624.16;5091245;28;19999;-56
2023/05/10 04:03:17;;;;;;;;;;;;;;;16.52;100.00;99624.16;5083218;28;19923;-57
2023/05/10 04:05:42;;;;;;;;;;;;;;;16.52;100.00;99624.16;5092058;28;20436;-57
2023/05/10 04:08:08;;;;;;;;;;;;;;;16.47;100.00;99618.22;5091465;28;19955;-56
2023/05/10 04:10:33;;;;;;;;;;;;;;;16.47;100.00;99628.97;5089258;28;20415;-57
2023/05/10 04:12:58;;;;;;;;;;;;;;;16.48;100.00;99627.97;5089700;28;20379;-56
2023/05/10 04:15:23;;;;;;;;;;;;;;;16.51;100.00;99638.53;5090056;28;19923;-56
2023/05/10 04:17:49;;;;;;;;;;;;;;;16.46;100.00;99636.13;5090406;28;20375;-56
2023/05/10 04:20:14;;;;;;;;;;;;;;;16.46;100.00;99636.13;5088854;28;19954;-56
2023/05/10 04:22:40;;;;;;;;;;;;;;;16.49;100.00;99635.94;5088794;28;19920;-56
2023/05/10 04:25:06;;;;;;;;;;;;;;;16.48;100.00;99638.72;5090863;28;19920;-57
2023/05/10 04:27:32;;;;;;;;;;;;;;;16.48;100.00;99644.09;5091571;28;19923;-57
2023/05/10 04:29:57;;;;;;;;;;;;;;;16.48;100.00;99638.72;5090987;28;20383;-56
2023/05/10 04:32:23;;;;;;;;;;;;;;;16.50;100.00;99636.81;5091501;28;19924;-56
2023/05/10 04:34:48;;;;;;;;;;;;;;;16.53;100.00;99641.97;5090701;28;19920;-57
2023/05/10 04:37:13;;;;;;;;;;;;;;;16.55;100.00;99645.44;5090488;28;19927;-56
2023/05/10 04:39:38;;;;;;;;;;;;;;;16.61;100.00;99645.91;5091723;28;19951;-56
2023/05/10 04:42:05;;;;;;;;;;;;;;;16.61;100.00;99645.06;5091712;28;19947;-56
2023/05/10 04:44:30;;;;;;;;;;;;;;;16.60;100.00;99637.97;5091809;28;20307;-56
2023/05/10 04:46:56;;;;;;;;;;;;;;;16.63;100.00;99643.13;5091003;28;19912;-56
2023/05/10 04:49:21;;;;;;;;;;;;;;;16.68;100.00;99649.09;5089854;28;19924;-56
2023/05/10 04:51:46;;;;;;;;;;;;;;;16.68;100.00;99647.28;5090539;28;19955;-56
2023/05/10 04:54:12;;;;;;;;;;;;;;;16.68;100.00;99657.13;5089456;28;19931;-56
2023/05/10 04:56:37;;;;;;;;;;;;;;;16.67;100.00;99655.44;5072432;28;20387;-56
2023/05/10 04:59:02;;;;;;;;;;;;;;;16.66;100.00;99659.06;5085705;28;19924;-57
2023/05/10 05:01:28;;;;;;;;;;;;;;;16.69;100.00;99650.78;5090380;28;19924;-57
2023/05/10 05:03:53;;;;;;;;;;;;;;;16.72;100.00;99645.25;5090951;28;20078;-57
2023/05/10 05:06:18;;;;;;;;;;;;;;;16.68;100.00;99647.28;5090503;28;19920;-57
2023/05/10 05:08:44;;;;;;;;;;;;;;;16.57;100.00;99638.16;5091265;28;19922;-57
2023/05/10 05:11:09;;;;;;;;;;;;;;;16.55;100.00;99642.75;5091075;28;20011;-56
2023/05/10 05:13:34;;;;;;;;;;;;;;;16.62;100.00;99646.78;5090245;28;20284;-56
2023/05/10 05:16:00;;;;;;;;;;;;;;;16.56;100.00;99652.53;5090748;28;19916;-57
2023/05/10 05:18:25;;;;;;;;;;;;;;;16.65;100.00;99652.84;5090560;28;19926;-57
2023/05/10 05:20:51;;;;;;;;;;;;;;;16.71;100.00;99652.44;5083140;28;19923;-57
2023/05/10 05:23:16;;;;;;;;;;;;;;;16.70;100.00;99655.22;5086217;28;19929;-57
2023/05/10 05:25:42;;;;;;;;;;;;;;;16.70;100.00;99668.66;5078969;28;19923;-57
2023/05/10 05:28:07;;;;;;;;;;;;;;;16.75;100.00;99663.84;5081157;28;19920;-57
2023/05/10 05:30:32;;;;;;;;;;;;;;;16.84;100.00;99674.88;5085478;28;20015;-57
2023/05/10 05:32:57;;;;;;;;;;;;;;;16.90;100.00;99673.63;5079533;28;19921;-57
2023/05/10 05:35:23;;;;;;;;;;;;;;;16.91;100.00;99680.72;5079432;28;19916;-57
2023/05/10 05:37:48;;;;;;;;;;;;;;;16.81;100.00;99666.16;5086324;28;19950;-57
2023/05/10 05:40:14;;;;;;;;;;;;;;;16.83;100.00;99683.03;5081673;28;19913;-57
2023/05/10 05:42:39;;;;;;;;;;;;;;;16.82;100.00;99689.34;5080810;28;19946;-57
2023/05/10 05:45:05;;;;;;;;;;;;;;;16.82;100.00;99689.34;5079239;28;19916;-56
2023/05/10 05:47:30;;;;;;;;;;;;;;;16.61;100.00;99662.03;5070253;28;19916;-57
2023/05/10 05:49:55;;;;;;;;;;;;;;;16.87;100.00;99690.81;5084429;28;19916;-57
2023/05/10 05:52:21;;;;;;;;;;;;;;;16.83;100.00;99694.66;5083884;28;19973;-57
2023/05/10 05:54:46;;;;;;;;;;;;;;;16.71;100.00;99659.63;5080686;28;20355;-57
2023/05/10 05:57:11;;;;;;;;;;;;;;;16.88;100.00;99702.41;5082392;28;19924;-56
2023/05/10 05:59:41;;;;;;;;;;;;;;;16.95;100.00;99693.00;5079964;28;19999;-57
2023/05/10 06:02:07;;;;;;;;;;;;;;;16.96;100.00;99706.34;5085441;28;20359;-57
2023/05/10 06:04:32;;;;;;;;;;;;;;;16.96;100.00;99706.34;5078500;28;19931;-57
2023/05/10 06:06:57;;;;;;;;;;;;;;;16.93;100.00;99705.69;5083182;28;19924;-57
2023/05/10 06:09:24;;;;;;;;;;;;;;;16.90;100.00;99712.09;5078950;28;20730;-57
2023/05/10 06:11:49;;;;;;;;;;;;;;;16.90;100.00;99716.63;5080857;28;19931;-57
2023/05/10 06:14:15;;;;;;;;;;;;;;;16.89;100.00;99709.50;5086757;28;19916;-57
2023/05/10 06:16:40;;;;;;;;;;;;;;;16.91;100.00;99708.47;5088691;28;19920;-57
2023/05/10 06:19:05;;;;;;;;;;;;;;;16.88;100.00;99718.53;5077106;28;20373;-57
2023/05/10 06:21:31;;;;;;;;;;;;;;;16.74;100.00;99715.84;5073900;28;20376;-57
2023/05/10 06:23:56;;;;;;;;;;;;;;;16.73;100.00;99724.88;5073612;28;19920;-57
2023/05/10 06:26:21;;;;;;;;;;;;;;;16.68;100.00;99721.59;5069042;28;20014;-57
2023/05/10 06:28:46;;;;;;;;;;;;;;;16.63;100.00;99729.94;5080473;28;19923;-57
2023/05/10 06:31:12;;;;;;;;;;;;;;;16.60;100.00;99731.94;5077806;28;20332;-57
2023/05/10 06:33:37;;;;;;;;;;;;;;;16.67;100.00;99741.38;5068019;28;20243;-56
2023/05/10 06:36:03;;;;;;;;;;;;;;;16.72;100.00;99739.25;5067882;28;20438;-57
2023/05/10 06:38:28;;;;;;;;;;;;;;;16.80;100.00;99737.81;5083922;28;20650;-57
2023/05/10 06:40:53;;;;;;;;;;;;;;;16.83;100.00;99742.13;5087978;28;19924;-57
2023/05/10 06:43:18;;;;;;;;;;;;;;;16.83;100.00;99737.63;5079831;28;19923;-57
2023/05/10 06:45:44;;;;;;;;;;;;;;;16.78;100.00;99744.25;5069621;28;19912;-57
2023/05/10 06:48:09;;;;;;;;;;;;;;;16.83;100.00;99747.50;5089677;28;20016;-57
2023/05/10 06:50:34;;;;;;;;;;;;;;;16.88;100.00;99737.34;5089279;28;19919;-57
2023/05/10 06:53:00;;;;;;;;;;;;;;;16.93;100.00;99736.06;5088500;28;20006;-57
2023/05/10 06:55:26;;;;;;;;;;;;;;;17.01;100.00;99746.34;5088147;28;19912;-57
2023/05/10 06:57:51;;;;;;;;;;;;;;;17.09;100.00;99752.97;5074989;28;19924;-57
2023/05/10 07:00:17;;;;;;;;;;;;;;;17.16;100.00;99756.16;5089206;28;19916;-57
2023/05/10 07:02:43;;;;;;;;;;;;;;;17.26;100.00;99756.41;5089102;28;19916;-57
2023/05/10 07:05:08;;;;;;;;;;;;;;;17.35;100.00;99756.69;5088747;28;19961;-57
2023/05/10 07:07:34;;;;;;;;;;;;;;;17.36;100.00;99749.50;5089957;28;19920;-57
2023/05/10 07:09:59;;;;;;;;;;;;;;;17.23;100.00;99752.13;5088890;28;19989;-57
2023/05/10 07:12:24;;;;;;;;;;;;;;;17.29;100.00;99757.09;5087921;28;19916;-57
2023/05/10 07:14:50;;;;;;;;;;;;;;;17.35;100.00;99764.75;5088431;28;19916;-57
2023/05/10 07:17:15;;;;;;;;;;;;;;;17.39;100.00;99763.59;5075505;28;19923;-57
2023/05/10 07:19:41;;;;;;;;;;;;;;;17.34;100.00;99776.47;5087080;28;19935;-57
2023/05/10 07:22:06;;;;;;;;;;;;;;;17.28;100.00;99760.72;5077677;28;19960;-57
2023/05/10 07:24:32;;;;;;;;;;;;;;;17.34;100.00;99770.22;5072714;28;19997;-57
2023/05/10 07:26:57;;;;;;;;;;;;;;;17.38;100.00;99766.41;5073257;28;19920;-57
2023/05/10 07:29:22;;;;;;;;;;;;;;;17.34;100.00;99767.53;5083121;28;19920;-57
2023/05/10 07:31:47;;;;;;;;;;;;;;;17.37;100.00;99765.53;5091000;28;19916;-57
2023/05/10 07:34:13;;;;;;;;;;;;;;;17.49;100.00;99770.16;5080271;28;20383;-57
2023/05/10 07:36:38;;;;;;;;;;;;;;;17.60;100.00;99764.94;5092622;28;20525;-56
2023/05/10 07:39:03;;;;;;;;;;;;;;;17.63;100.00;99778.19;5075899;28;19926;-57
2023/05/10 07:41:28;;;;;;;;;;;;;;;17.77;100.00;99775.47;5085888;28;19924;-57
2023/05/10 07:43:54;;;;;;;;;;;;;;;17.79;100.00;99772.66;5082269;28;19942;-57
2023/05/10 07:46:20;;;;;;;;;;;;;;;17.83;100.00;99766.09;5072134;28;19920;-57
2023/05/10 07:48:45;;;;;;;;;;;;;;;17.94;99.02;99774.34;5077029;28;20379;-57
2023/05/10 07:51:10;;;;;;;;;;;;;;;17.80;96.75;99775.25;5089383;28;20429;-57
2023/05/10 07:53:36;;;;;;;;;;;;;;;17.90;95.76;99770.13;5092561;28;20003;-57
2023/05/10 07:56:19;;;;;;;;;;;;;;;17.85;94.51;99778.50;5091814;28;19956;-57
2023/05/10 07:58:44;;;;;;;;;;;;;;;17.88;94.40;99778.31;5069320;28;19925;-57
2023/05/10 08:01:10;;;;;;;;;;;;;;;17.80;93.35;99783.34;5070384;28;19927;-57
2023/05/10 08:03:35;;;;;;;;;;;;;;;17.85;94.67;99783.03;5061029;28;19917;-56
2023/05/10 08:06:00;;;;;;;;;;;;;;;17.79;95.31;99789.66;5052144;28;20351;-57
2023/05/10 08:08:26;;;;;;;;;;;;;;;17.96;96.09;99784.03;5069257;28;20014;-57
2023/05/10 08:10:51;;;;;;;;;;;;;;;17.93;94.64;99786.06;5086633;28;19920;-56
2023/05/10 08:13:16;;;;;;;;;;;;;;;17.94;92.79;99788.66;5091894;28;19912;-57
2023/05/10 08:15:42;;;;;;;;;;;;;;;17.86;91.73;99788.28;5078057;28;19927;-56
2023/05/10 08:18:07;;;;;;;;;;;;;;;17.89;91.52;99790.78;5071748;28;20372;-57
2023/05/10 08:20:32;;;;;;;;;;;;;;;17.93;90.20;99792.31;5071465;28;19947;-57
2023/05/10 08:22:57;;;;;;;;;;;;;;;17.82;88.35;99789.47;5071981;28;20528;-57
2023/05/10 08:25:23;;;;;;;;;;;;;;;17.77;88.75;99791.63;5071746;28;20558;-57
2023/05/10 08:27:48;;;;;;;;;;;;;;;17.53;87.75;99792.34;5070162;28;19931;-57
2023/05/10 08:30:13;;;;;;;;;;;;;;;17.53;89.73;99797.72;5071450;28;20335;-57
2023/05/10 08:32:38;;;;;;;;;;;;;;;17.55;90.87;99793.94;5070678;28;19970;-57
2023/05/10 08:35:04;;;;;;;;;;;;;;;17.73;91.85;99799.97;5071146;28;19913;-57
2023/05/10 08:37:30;;;;;;;;;;;;;;;17.98;91.95;99800.97;5070735;28;20317;-57
2023/05/10 08:39:55;;;;;;;;;;;;;;;18.42;92.55;99799.84;5070976;28;19913;-57
2023/05/10 08:42:22;;;;;;;;;;;;;;;18.67;90.28;99797.19;5069761;28;19920;-57
2023/05/10 08:44:48;;;;;;;;;;;;;;;18.69;86.86;99797.94;5070592;28;20296;-56
2023/05/10 08:47:15;;;;;;;;;;;;;;;19.24;87.32;99802.03;5069718;28;19927;-57
2023/05/10 08:49:41;;;;;;;;;;;;;;;19.76;88.12;99795.59;5076314;28;19991;-57
2023/05/10 08:52:07;;;;;;;;;;;;;;;19.78;84.84;99790.97;5091261;28;20041;-57
2023/05/10 08:54:33;;;;;;;;;;;;;;;19.58;83.00;99803.22;5091348;28;20007;-57
2023/05/10 08:56:58;;;;;;;;;;;;;;;19.22;82.70;99805.84;5086050;28;19931;-57
2023/05/10 08:59:23;;;;;;;;;;;;;;;18.88;83.06;99809.19;5077095;28;20280;-57
2023/05/10 09:01:50;;;;;;;;;;;;;;;18.63;85.06;99814.53;5076497;28;19923;-57
2023/05/10 09:04:15;;;;;;;;;;;;;;;18.75;85.72;99813.66;5091171;28;19916;-56
2023/05/10 09:06:41;;;;;;;;;;;;;;;19.03;86.54;99818.88;5080377;28;19923;-57
2023/05/10 09:09:06;;;;;;;;;;;;;;;19.10;84.96;99820.19;5086446;28;19920;-57
2023/05/10 09:11:31;;;;;;;;;;;;;;;19.06;84.04;99824.91;5091024;28;19912;-58
2023/05/10 09:13:57;;;;;;;;;;;;;;;18.93;84.17;99820.50;5091060;28;20589;-57
2023/05/10 09:16:23;;;;;;;;;;;;;;;18.91;83.26;99825.16;5090025;28;20303;-57
2023/05/10 09:18:49;;;;;;;;;;;;;;;18.70;81.70;99834.72;5090744;28;19920;-57
2023/05/10 09:21:14;;;;;;;;;;;;;;;18.76;84.08;99826.19;5089552;28;19985;-57
2023/05/10 09:23:42;;;;;;;;;;;;;;;18.90;83.52;99831.47;5090989;28;19951;-57
2023/05/10 09:26:07;;;;;;;;;;;;;;;18.99;82.33;99829.03;5090611;28;20391;-57
2023/05/10 09:28:59;;;;;;;;;;;;;;;19.12;80.16;99834.41;5090545;28;19924;-57
2023/05/10 09:31:25;;;;;;;;;;;;;;;19.45;81.99;99837.47;5085967;28;20368;-56
2023/05/10 09:33:51;;;;;;;;;;;;;;;19.59;79.75;99838.19;5089616;28;20359;-57
2023/05/10 09:36:16;;;;;;;;;;;;;;;19.73;76.23;99829.09;5090608;28;19913;-57
2023/05/10 09:38:48;;;;;;;;;;;;;;;19.89;77.06;99837.78;5089242;28;20414;-57
2023/05/10 09:41:21;;;;;;;;;;;;;;;19.62;74.08;99835.25;5089860;28;20020;-57
2023/05/10 09:43:46;;;;;;;;;;;;;;;19.49;75.76;99844.34;5090372;28;19919;-57
2023/05/10 09:46:12;;;;;;;;;;;;;;;19.12;75.30;99842.50;5089922;28;19975;-57
2023/05/10 09:48:44;;;;;;;;;;;;;;;18.77;77.64;99846.78;5090460;28;20004;-57
2023/05/10 09:51:10;;;;;;;;;;;;;;;18.47;76.96;99840.81;5089063;28;19924;-57
2023/05/10 09:53:35;;;;;;;;;;;;;;;18.02;76.37;99837.44;5090093;28;19923;-56
2023/05/10 09:56:01;;;;;;;;;;;;;;;17.63;73.70;99848.13;5090346;28;19916;-56
2023/05/10 09:58:28;;;;;;;;;;;;;;;17.70;77.97;99853.97;5085479;28;21473;-57
2023/05/10 10:00:54;;;;;;;;;;;;;;;17.84;77.53;99852.09;5090407;28;19923;-57
2023/05/10 10:03:20;;;;;;;;;;;;;;;18.05;76.01;99847.16;5090418;28;20026;-56
2023/05/10 10:05:46;;;;;;;;;;;;;;;18.48;75.36;99850.59;5089493;28;19999;-57
2023/05/10 10:08:12;;;;;;;;;;;;;;;18.71;73.56;99849.91;5090232;28;20635;-56
2023/05/10 10:10:39;;;;;;;;;;;;;;;18.73;72.66;99853.38;5090222;28;20284;-57
2023/05/10 10:13:05;;;;;;;;;;;;;;;18.75;69.29;99851.41;5089261;28;19923;-57
2023/05/10 10:15:31;;;;;;;;;;;;;;;18.95;69.96;99848.19;5090007;28;19920;-56
2023/05/10 10:17:57;;;;;;;;;;;;;;;19.20;72.60;99854.50;5088656;28;20014;-57
2023/05/10 10:20:22;;;;;;;;;;;;;;;19.22;69.33;99851.69;5089291;28;19998;-57
2023/05/10 10:22:48;;;;;;;;;;;;;;;19.31;71.03;99851.91;5089071;28;19970;-56
2023/05/10 10:25:15;;;;;;;;;;;;;;;19.21;69.50;99850.81;5087926;28;20407;-57
2023/05/10 10:27:49;;;;;;;;;;;;;;;19.14;69.56;99848.66;5088206;28;20284;-56
2023/05/10 10:30:30;;;;;;;;;;;;;;;19.21;70.14;99849.94;5088087;28;19920;-57
2023/05/10 10:33:10;;;;;;;;;;;;;;;19.07;69.11;99847.34;5088915;28;19917;-57
2023/05/10 10:35:36;;;;;;;;;;;;;;;19.02;71.61;99853.06;5088974;28;19911;-56
2023/05/10 10:38:01;;;;;;;;;;;;;;;18.94;70.90;99847.34;5088652;28;20379;-57
2023/05/10 10:40:26;;;;;;;;;;;;;;;19.05;71.44;99854.69;5088013;28;19916;-57
2023/05/10 10:42:53;;;;;;;;;;;;;;;19.23;73.17;99848.00;5087912;28;19919;-57
2023/05/10 10:45:19;;;;;;;;;;;;;;;19.24;70.79;99850.59;5088549;28;20003;-57
2023/05/10 10:47:44;;;;;;;;;;;;;;;19.16;66.38;99846.72;5088543;28;20030;-57
2023/05/10 10:50:12;;;;;;;;;;;;;;;19.32;69.00;99859.03;5078796;28;19934;-57
2023/05/10 10:52:41;;;;;;;;;;;;;;;19.20;65.94;99853.63;5092505;28;19920;-57
2023/05/10 10:55:08;;;;;;;;;;;;;;;19.25;67.59;99846.94;5093589;28;19923;-56
2023/05/10 10:57:40;;;;;;;;;;;;;;;19.18;65.75;99847.47;5093135;28;19928;-57
2023/05/10 11:00:23;;;;;;;;;;;;;;;19.26;67.30;99856.75;5092926;28;19924;-56
2023/05/10 11:02:59;;;;;;;;;;;;;;;19.20;65.10;99859.00;5091287;28;19931;-57
2023/05/10 11:05:27;;;;;;;;;;;;;;;19.47;65.63;99857.09;5093086;28;19916;-57
2023/05/10 11:07:54;;;;;;;;;;;;;;;19.47;60.84;99852.56;5083937;28;19923;-57
2023/05/10 11:10:22;;;;;;;;;;;;;;;19.31;60.78;99853.75;5093163;28;19920;-57
2023/05/10 11:13:03;;;;;;;;;;;;;;;19.50;63.19;99854.19;5092619;28;20301;-56
2023/05/10 11:15:32;;;;;;;;;;;;;;;19.47;61.34;99862.50;5073037;28;20005;-57
2023/05/10 11:17:58;;;;;;;;;;;;;;;19.56;63.06;99857.31;5072820;28;20307;-57
2023/05/10 11:20:32;;;;;;;;;;;;;;;19.47;60.79;99852.56;5083829;28;20062;-57
2023/05/10 11:22:58;;;;;;;;;;;;;;;19.46;60.30;99849.97;5091798;28;19916;-57
2023/05/10 11:25:27;;;;;;;;;;;;;;;19.70;63.42;99847.34;5091412;28;19920;-57
2023/05/10 11:27:53;;;;;;;;;;;;;;;19.94;62.62;99846.41;5092341;28;20434;-57
2023/05/10 11:30:19;;;;;;;;;;;;;;;20.56;61.97;99839.91;5092272;28;19968;-57
2023/05/10 11:32:44;;;;;;;;;;;;;;;21.19;56.17;99844.03;5091209;28;19924;-57
2023/05/10 11:35:10;;;;;;;;;;;;;;;21.66;57.20;99846.53;5092618;28;20038;-57
2023/05/10 11:37:36;;;;;;;;;;;;;;;21.77;56.26;99849.28;5092060;28;20375;-57
2023/05/10 11:40:02;;;;;;;;;;;;;;;21.34;53.15;99850.94;5091899;28;19922;-57
2023/05/10 11:42:27;;;;;;;;;;;;;;;21.07;56.34;99850.44;5092443;28;19916;-56
2023/05/10 11:44:53;;;;;;;;;;;;;;;20.97;56.05;99842.19;5092044;28;19942;-57
2023/05/10 11:47:18;;;;;;;;;;;;;;;21.09;58.93;99840.38;5092930;28;20279;-57
2023/05/10 11:49:44;;;;;;;;;;;;;;;21.52;57.55;99838.66;5083596;28;19917;-56
2023/05/10 11:52:11;;;;;;;;;;;;;;;21.74;54.03;99842.25;5072797;28;20470;-57
2023/05/10 11:54:36;;;;;;;;;;;;;;;22.14;52.33;99823.63;5080026;28;20394;-57
2023/05/10 11:57:02;;;;;;;;;;;;;;;21.92;49.16;99843.50;5092480;28;19916;-57
2023/05/10 11:59:27;;;;;;;;;;;;;;;21.75;51.02;99837.66;5092397;28;19926;-57
2023/05/10 12:01:53;;;;;;;;;;;;;;;21.38;52.22;99841.63;5092717;28;19912;-57
2023/05/10 12:04:18;;;;;;;;;;;;;;;21.16;54.25;99834.34;5083854;28;19927;-56
2023/05/10 12:06:44;;;;;;;;;;;;;;;21.45;56.17;99829.34;5074710;28;19923;-57
2023/05/10 12:09:10;;;;;;;;;;;;;;;21.56;53.35;99837.44;5078778;28;19924;-57
2023/05/10 12:11:40;;;;;;;;;;;;;;;21.14;50.84;99824.59;5091788;28;20022;-56
2023/05/10 12:14:05;;;;;;;;;;;;;;;21.02;54.60;99836.41;5091784;28;19920;-57
2023/05/10 12:16:30;;;;;;;;;;;;;;;21.04;56.26;99829.03;5092159;28;19961;-57
2023/05/10 12:18:57;;;;;;;;;;;;;;;21.04;57.54;99834.44;5091247;28;19931;-57
2023/05/10 12:21:23;;;;;;;;;;;;;;;20.71;55.54;99838.72;5091630;28;19972;-57
2023/05/10 12:23:50;;;;;;;;;;;;;;;20.71;58.44;99838.72;5091053;28;20364;-56
2023/05/10 12:26:16;;;;;;;;;;;;;;;20.61;58.77;99837.72;5091910;28;19930;-56
2023/05/10 12:28:41;;;;;;;;;;;;;;;20.55;58.24;99838.19;5091857;28;20568;-57
2023/05/10 12:31:07;;;;;;;;;;;;;;;20.38;58.87;99841.28;5091809;28;19912;-56
2023/05/10 12:33:38;;;;;;;;;;;;;;;20.34;59.54;99836.25;5091112;28;19919;-56
2023/05/10 12:36:04;;;;;;;;;;;;;;;20.12;60.12;99839.66;5091758;28;19922;-56